Time;durP1;ratioP1;P1;durP2;ratioP2;P2;SDS_P1;SDS_P2;PMS_P1;PMS_P2;Temp;Humidity;BMP_temperature;BMP_pressure;BME280_temperature;BME280_humidity;BME280_pressure;Samples;Min_cycle;Max_cycle;Signal;HPM_P1;HPM_P2
2022/04/29 04:08:39;;;;;;;1.92;1.90;;;2.90;99.90;;;;;;5070835;23;20669;-65
2022/04/29 04:11:06;;;;;;;2.13;2.05;;;2.90;99.90;;;;;;4954679;29;20295;-66
2022/04/29 04:13:33;;;;;;;1.73;1.73;;;2.90;99.90;;;;;;4954600;29;20640;-66
2022/04/29 04:16:00;;;;;;;1.70;1.67;;;2.90;99.90;;;;;;4954780;29;20785;-66
2022/04/29 04:18:26;;;;;;;1.60;1.60;;;2.90;99.90;;;;;;4938905;28;20226;-66
2022/04/29 04:20:53;;;;;;;1.80;1.80;;;3.00;99.90;;;;;;4935362;29;20236;-67
2022/04/29 04:23:20;;;;;;;1.48;1.45;;;2.90;99.90;;;;;;4935684;29;20291;-67
2022/04/29 04:25:50;;;;;;;1.80;1.80;;;3.00;99.90;;;;;;4936164;29;20299;-67
2022/04/29 04:28:17;;;;;;;1.88;1.88;;;3.00;99.90;;;;;;4935358;29;20232;-65
2022/04/29 04:30:44;;;;;;;1.70;1.70;;;3.10;99.90;;;;;;4935369;29;20207;-65
2022/04/29 04:33:11;;;;;;;1.70;1.60;;;3.20;99.90;;;;;;4935543;29;20319;-66
2022/04/29 04:35:38;;;;;;;1.75;1.65;;;3.20;99.90;;;;;;4935642;29;20292;-66
2022/04/29 04:38:04;;;;;;;1.67;1.67;;;3.30;99.90;;;;;;4935239;29;20763;-66
2022/04/29 04:40:31;;;;;;;2.20;2.20;;;3.40;99.90;;;;;;4939591;29;20207;-67
2022/04/29 04:42:59;;;;;;;1.95;1.85;;;3.40;99.90;;;;;;4939340;29;20291;-66
2022/04/29 04:45:26;;;;;;;1.60;1.60;;;3.60;99.90;;;;;;4939241;29;20211;-66
2022/04/29 04:47:53;;;;;;;1.63;1.63;;;3.70;99.90;;;;;;4939084;29;20311;-66
2022/04/29 04:50:20;;;;;;;1.80;1.80;;;3.80;99.90;;;;;;4939270;29;20291;-65
2022/04/29 04:52:47;;;;;;;1.85;1.85;;;3.90;99.90;;;;;;4940115;29;20649;-65
2022/04/29 04:55:14;;;;;;;2.50;2.40;;;4.10;99.90;;;;;;4938740;29;20291;-65
2022/04/29 04:57:41;;;;;;;1.70;1.70;;;4.20;99.90;;;;;;4938819;29;20315;-66
2022/04/29 05:00:10;;;;;;;1.50;1.50;;;4.40;99.90;;;;;;4939155;29;20307;-66
2022/04/29 05:02:40;;;;;;;2.15;2.13;;;4.80;99.90;;;;;;4938970;29;20624;-66
2022/04/29 05:05:08;;;;;;;1.85;1.77;;;5.20;99.90;;;;;;4938858;29;20295;-65
2022/04/29 05:07:38;;;;;;;1.50;1.50;;;5.60;99.90;;;;;;4939090;29;20231;-65
2022/04/29 05:10:06;;;;;;;1.50;1.50;;;5.90;99.90;;;;;;4938765;29;20212;-65
2022/04/29 05:12:33;;;;;;;1.40;1.40;;;6.20;99.90;;;;;;4938670;29;20535;-66
2022/04/29 05:15:02;;;;;;;1.50;1.50;;;6.60;99.90;;;;;;4938763;29;20295;-65
2022/04/29 05:17:30;;;;;;;1.67;1.67;;;6.90;99.90;;;;;;4938408;29;20311;-66
2022/04/29 05:19:58;;;;;;;2.90;2.70;;;7.30;99.90;;;;;;4938854;29;20234;-66
2022/04/29 05:22:25;;;;;;;4.68;4.28;;;7.60;99.90;;;;;;4938663;29;20228;-65
2022/04/29 05:24:51;;;;;;;5.18;4.78;;;8.00;99.90;;;;;;4938327;29;20251;-65
2022/04/29 05:27:18;;;;;;;7.85;7.05;;;8.40;99.90;;;;;;4938556;29;20311;-65
2022/04/29 05:29:45;;;;;;;7.03;6.43;;;8.80;99.90;;;;;;4938820;29;20236;-65
2022/04/29 05:32:12;;;;;;;7.03;6.47;;;9.20;99.90;;;;;;4938384;29;20256;-66
2022/04/29 05:34:40;;;;;;;5.55;5.25;;;9.60;99.90;;;;;;4938780;29;20206;-70
2022/04/29 05:37:07;;;;;;;4.65;4.35;;;10.00;99.90;;;;;;4938234;29;20311;-68
2022/04/29 05:42:21;;;;;;;3.40;3.30;;;10.80;99.90;;;;;;4940784;29;20184;-68
2022/04/29 05:44:48;;;;;;;3.53;3.33;;;11.20;99.90;;;;;;4938190;29;20208;-68
2022/04/29 05:47:15;;;;;;;3.20;2.50;;;11.50;99.90;;;;;;4938129;29;20311;-67
2022/04/29 05:49:43;;;;;;;2.65;2.45;;;12.00;99.90;;;;;;4938067;29;20295;-67
2022/04/29 05:52:10;;;;;;;2.60;2.50;;;12.40;99.20;;;;;;4937805;29;20296;-68
2022/04/29 05:54:38;;;;;;;3.20;2.60;;;12.70;89.50;;;;;;4938103;29;20240;-68
2022/04/29 05:57:05;;;;;;;2.45;2.35;;;12.90;91.90;;;;;;4937809;29;20308;-68
2022/04/29 05:59:33;;;;;;;2.78;2.08;;;13.20;94.00;;;;;;4937959;29;20211;-68
2022/04/29 06:02:00;;;;;;;1.90;1.80;;;13.50;73.50;;;;;;4937623;29;20240;-68
2022/04/29 06:04:27;;;;;;;1.90;1.80;;;13.60;72.60;;;;;;4937926;29;20240;-68
2022/04/29 06:06:55;;;;;;;2.15;2.05;;;13.60;76.30;;;;;;4937711;29;20226;-68
2022/04/29 06:09:22;;;;;;;2.58;2.28;;;13.60;70.10;;;;;;4937479;29;20244;-69
2022/04/29 06:11:49;;;;;;;2.13;2.03;;;13.60;75.20;;;;;;4937549;29;20743;-69
2022/04/29 06:14:16;;;;;;;2.30;2.20;;;13.80;73.90;;;;;;4937446;29;20308;-68
2022/04/29 06:16:43;;;;;;;2.90;2.70;;;14.10;69.40;;;;;;4937258;29;20211;-67
2022/04/29 06:19:10;;;;;;;3.65;3.33;;;14.20;60.30;;;;;;4937354;29;20257;-68
2022/04/29 06:21:38;;;;;;;2.92;2.72;;;14.30;63.00;;;;;;4937399;29;20303;-68
2022/04/29 06:24:08;;;;;;;2.67;2.58;;;14.50;58.40;;;;;;4937304;29;20572;-68
2022/04/29 06:26:35;;;;;;;3.03;2.72;;;14.80;61.10;;;;;;4937040;29;20287;-68
2022/04/29 06:29:02;;;;;;;2.78;2.58;;;15.40;60.40;;;;;;4937388;29;20236;-68
2022/04/29 06:31:29;;;;;;;2.38;2.28;;;16.20;55.40;;;;;;4937320;29;20287;-68
2022/04/29 06:33:55;;;;;;;2.55;2.45;;;17.20;50.10;;;;;;4937235;29;20645;-68
2022/04/29 06:36:22;;;;;;;3.28;3.08;;;18.20;45.70;;;;;;4936794;29;20240;-68
2022/04/29 06:38:49;;;;;;;3.50;3.20;;;19.10;48.10;;;;;;4936699;29;20224;-67
2022/04/29 06:41:17;;;;;;;2.90;2.70;;;20.30;45.20;;;;;;4937314;29;20210;-67
2022/04/29 06:43:45;;;;;;;2.97;2.70;;;;;;;;;;4936979;29;20283;-67
2022/04/29 06:46:12;;;;;;;2.72;2.53;;;22.40;42.60;;;;;;4937065;29;20575;-68
2022/04/29 06:48:39;;;;;;;2.50;2.30;;;23.40;50.60;;;;;;4936533;29;20653;-68
2022/04/29 06:51:05;;;;;;;2.55;2.30;;;24.20;43.80;;;;;;4936915;29;20250;-68
2022/04/29 06:53:32;;;;;;;2.60;2.40;;;24.70;43.70;;;;;;4936449;29;20763;-69
2022/04/29 06:55:59;;;;;;;2.50;2.40;;;24.70;46.80;;;;;;4936574;29;20696;-66
2022/04/29 06:58:28;;;;;;;2.42;2.22;;;24.50;38.40;;;;;;4937218;29;20229;-69
2022/04/29 07:00:54;;;;;;;2.15;2.05;;;24.40;38.80;;;;;;4936540;29;20206;-69
2022/04/29 07:03:21;;;;;;;2.38;2.28;;;24.60;36.50;;;;;;4936507;29;20295;-69
2022/04/29 07:05:51;;;;;;;2.38;2.20;;;24.40;37.60;;;;;;4936866;29;20266;-69
2022/04/29 07:08:20;;;;;;;3.05;2.85;;;24.20;37.40;;;;;;4936350;29;20529;-68
2022/04/29 07:10:46;;;;;;;3.55;3.25;;;24.00;38.50;;;;;;4936694;29;20534;-68
2022/04/29 07:13:14;;;;;;;4.60;3.60;;;24.00;40.50;;;;;;4936221;29;20586;-68
2022/04/29 07:15:43;;;;;;;3.92;3.08;;;24.20;45.50;;;;;;4936495;29;20297;-69
2022/04/29 07:18:10;;;;;;;3.22;2.97;;;24.40;41.50;;;;;;4936429;29;20569;-68
2022/04/29 07:20:37;;;;;;;2.92;2.72;;;24.50;42.30;;;;;;4936439;29;20295;-68
2022/04/29 07:23:05;;;;;;;2.97;2.78;;;24.50;42.80;;;;;;4936418;29;20196;-69
2022/04/29 07:25:32;;;;;;;2.70;2.50;;;24.50;41.70;;;;;;4936340;29;20286;-69
2022/04/29 07:27:59;;;;;;;2.55;2.35;;;24.50;41.30;;;;;;4936264;29;20224;-69
2022/04/29 07:30:27;;;;;;;2.50;2.30;;;24.50;42.90;;;;;;4936371;29;20231;-68
2022/04/29 07:32:55;;;;;;;2.22;2.13;;;24.40;40.30;;;;;;4936286;29;20295;-68
2022/04/29 07:43:36;;;;;;;2.45;2.30;;;23.80;38.50;;;;;;4936222;29;20204;-69
2022/04/29 07:46:03;;;;;;;2.00;1.70;;;22.80;34.60;;;;;;4936183;29;20230;-69
2022/04/29 07:48:32;;;;;;;2.30;2.10;;;22.90;33.60;;;;;;4936126;29;20412;-69
2022/04/29 07:50:59;;;;;;;2.08;1.70;;;22.50;33.20;;;;;;4936079;29;20294;-69
2022/04/29 07:53:26;;;;;;;2.33;2.13;;;21.80;32.60;;;;;;4935956;29;20219;-69
2022/04/29 07:55:53;;;;;;;2.40;2.30;;;21.50;34.00;;;;;;4936098;29;20232;-69
2022/04/29 07:58:20;;;;;;;1.92;1.88;;;21.40;34.40;;;;;;4935715;29;20316;-68
2022/04/29 08:00:48;;;;;;;2.35;2.10;;;20.90;34.30;;;;;;4936132;29;20245;-68
2022/04/29 08:03:15;;;;;;;4.13;1.90;;;20.10;35.80;;;;;;4936094;29;20228;-67
2022/04/29 08:05:43;;;;;;;2.33;2.05;;;19.20;36.70;;;;;;4935647;29;20262;-67
2022/04/29 08:08:10;;;;;;;2.88;2.70;;;19.00;36.40;;;;;;4935744;29;20314;-67
2022/04/29 08:10:37;;;;;;;6.28;2.10;;;17.90;37.20;;;;;;4935889;29;20228;-67
2022/04/29 08:13:04;;;;;;;3.08;2.88;;;17.10;38.30;;;;;;4935593;29;20259;-66
2022/04/29 08:15:32;;;;;;;2.78;2.58;;;16.50;40.90;;;;;;4939640;29;20294;-66
2022/04/29 08:17:59;;;;;;;3.15;2.50;;;16.20;41.10;;;;;;4939401;29;20227;-67
2022/04/29 08:20:27;;;;;;;2.72;2.53;;;16.00;42.30;;;;;;4939812;29;20208;-67
2022/04/29 08:22:55;;;;;;;2.97;2.78;;;16.00;43.10;;;;;;4939754;29;20306;-67
2022/04/29 08:25:22;;;;;;;4.75;2.70;;;15.90;41.80;;;;;;4939608;29;20247;-67
2022/04/29 08:27:51;;;;;;;4.82;3.03;;;15.30;43.30;;;;;;4939261;29;20315;-68
2022/04/29 08:30:18;;;;;;;2.40;2.17;;;15.10;43.10;;;;;;4939633;29;20239;-68
2022/04/29 08:32:50;;;;;;;2.78;2.58;;;15.10;44.70;;;;;;4939536;29;20287;-68
2022/04/29 08:35:17;;;;;;;3.53;2.63;;;15.30;43.30;;;;;;4939660;29;20189;-69
2022/04/29 08:37:45;;;;;;;3.47;3.17;;;15.20;44.60;;;;;;4939493;29;20311;-68
2022/04/29 08:40:15;;;;;;;3.38;3.10;;;15.30;44.30;;;;;;4939709;29;20218;-68
2022/04/29 08:42:42;;;;;;;3.97;2.70;;;15.40;45.60;;;;;;4938956;29;20299;-68
2022/04/29 08:45:11;;;;;;;3.65;3.10;;;15.70;45.50;;;;;;4939188;29;20205;-68
2022/04/29 08:47:40;;;;;;;3.45;3.25;;;15.80;44.90;;;;;;4939005;29;20315;-68
2022/04/29 08:50:09;;;;;;;3.85;2.88;;;15.90;44.30;;;;;;4939428;29;20294;-68
2022/04/29 08:52:36;;;;;;;3.33;3.13;;;15.90;44.40;;;;;;4939282;29;20287;-68
2022/04/29 09:00:38;;;;;;;2.90;2.50;;;15.50;45.70;;;;;;4939194;29;20204;-68
2022/04/29 09:03:06;;;;;;;3.00;2.78;;;15.50;47.50;;;;;;4938355;29;20208;-69
2022/04/29 09:05:34;;;;;;;3.55;3.10;;;15.40;47.20;;;;;;4938397;29;20299;-69
2022/04/29 09:08:03;;;;;;;3.15;2.90;;;15.60;46.30;;;;;;4938619;29;20227;-68
2022/04/29 09:10:34;;;;;;;4.80;3.67;;;15.50;47.40;;;;;;4938716;29;20284;-66
2022/04/29 09:13:13;;;;;;;3.63;3.33;;;15.40;46.60;;;;;;4939456;29;20625;-65
2022/04/29 09:15:47;;;;;;;4.10;3.10;;;15.30;47.80;;;;;;4939797;29;20271;-65
2022/04/29 09:18:15;;;;;;;3.08;2.88;;;15.20;47.60;;;;;;4940286;29;20220;-66
2022/04/29 09:20:42;;;;;;;2.90;2.70;;;15.20;48.30;;;;;;4939023;29;20209;-66
2022/04/29 09:23:10;;;;;;;3.47;3.28;;;15.20;49.40;;;;;;4938846;29;20205;-65
2022/04/29 09:25:37;;;;;;;3.47;3.20;;;15.40;47.80;;;;;;4938585;29;20204;-66
2022/04/29 09:28:06;;;;;;;2.83;2.60;;;15.50;48.40;;;;;;4938758;29;20323;-68
2022/04/29 09:30:41;;;;;;;3.78;3.33;;;15.70;49.30;;;;;;4938867;29;20291;-68
2022/04/29 09:33:20;;;;;;;3.30;3.05;;;15.60;48.70;;;;;;4938544;29;20208;-70
2022/04/29 09:35:47;;;;;;;3.40;3.10;;;15.50;47.80;;;;;;4938312;29;20287;-69
2022/04/29 09:41:00;;;;;;;6.20;4.30;;;15.70;50.00;;;;;;4938605;29;20544;-70
2022/04/29 09:43:35;;;;;;;2.65;2.45;;;15.90;48.80;;;;;;4937945;29;20723;-70
2022/04/29 09:46:15;;;;;;;2.83;2.65;;;16.10;47.10;;;;;;4938142;29;20239;-70
2022/04/29 09:48:53;;;;;;;2.90;2.70;;;16.30;46.70;;;;;;4937891;29;20695;-68
2022/04/29 09:51:38;;;;;;;2.10;2.00;;;16.50;45.30;;;;;;4937684;29;20291;-69
2022/04/29 09:54:10;;;;;;;2.65;2.55;;;16.40;46.60;;;;;;4937860;29;20303;-69
2022/04/29 09:56:37;;;;;;;2.60;2.40;;;16.30;46.20;;;;;;4938075;29;20208;-68
2022/04/29 09:59:04;;;;;;;2.83;2.63;;;16.40;46.50;;;;;;4938001;29;20303;-67
2022/04/29 10:01:33;;;;;;;2.38;2.22;;;16.60;45.00;;;;;;4937805;29;20300;-67
2022/04/29 10:04:00;;;;;;;1.70;1.60;;;16.80;45.00;;;;;;4937899;29;20287;-67
2022/04/29 10:06:29;;;;;;;2.03;1.92;;;17.10;45.90;;;;;;4937650;29;20204;-67
2022/04/29 10:08:59;;;;;;;2.17;1.58;;;17.30;45.30;;;;;;4937076;29;20583;-67
2022/04/29 10:11:28;;;;;;;2.40;2.30;;;17.60;46.00;;;;;;4937487;29;20205;-67
2022/04/29 10:13:55;;;;;;;2.13;1.92;;;17.60;45.10;;;;;;4937383;29;20251;-67
2022/04/29 10:16:23;;;;;;;2.22;2.13;;;17.60;45.70;;;;;;4937338;29;20208;-68
2022/04/29 10:21:47;;;;;;;3.05;2.85;;;17.30;46.40;;;;;;4937606;29;20319;-70
2022/04/29 10:24:14;;;;;;;2.85;2.58;;;17.30;45.00;;;;;;4937523;29;20287;-69
2022/04/29 10:26:41;;;;;;;2.33;2.20;;;17.00;46.10;;;;;;4937606;29;20204;-67
2022/04/29 10:29:09;;;;;;;1.60;1.50;;;17.10;45.60;;;;;;4937127;29;20641;-67
2022/04/29 10:31:35;;;;;;;1.58;1.30;;;17.30;45.70;;;;;;4937248;29;20624;-68
2022/04/29 10:34:29;;;;;;;2.33;2.22;;;17.50;45.10;;;;;;4937558;29;20224;-67
2022/04/29 10:36:56;;;;;;;1.30;1.30;;;17.40;45.00;;;;;;4936045;29;20648;-68
2022/04/29 10:39:23;;;;;;;2.13;2.03;;;17.50;45.10;;;;;;4937339;29;20287;-67
2022/04/29 10:42:01;;;;;;;3.50;2.90;;;17.40;45.10;;;;;;4937320;29;20687;-67
2022/04/29 10:44:29;;;;;;;2.78;2.58;;;17.10;44.80;;;;;;4936760;29;20253;-66
2022/04/29 10:46:57;;;;;;;2.78;2.60;;;16.80;45.90;;;;;;4937214;29;20315;-66
2022/04/29 10:49:30;;;;;;;2.00;1.90;;;16.60;46.80;;;;;;4937318;29;20211;-66
2022/04/29 10:51:59;;;;;;;1.50;1.50;;;16.70;47.80;;;;;;4937540;29;20204;-67
2022/04/29 10:54:48;;;;;;;2.78;2.20;;;16.90;49.00;;;;;;4936847;29;20220;-67
2022/04/29 10:57:15;;;;;;;1.70;1.60;;;17.10;47.00;;;;;;4936859;29;20591;-68
2022/04/29 10:59:53;;;;;;;4.05;2.50;;;17.10;47.30;;;;;;4936935;29;20818;-69
2022/04/29 11:02:28;;;;;;;2.35;2.15;;;17.20;46.70;;;;;;4937406;29;20204;-66
2022/04/29 11:04:57;;;;;;;2.45;2.25;;;17.00;47.50;;;;;;4937129;29;20204;-66
2022/04/29 11:07:48;;;;;;;3.03;2.40;;;16.80;47.50;;;;;;4936591;29;20792;-68
2022/04/29 11:10:21;;;;;;;2.97;2.78;;;16.80;46.70;;;;;;4936848;29;20204;-68
2022/04/29 11:12:59;;;;;;;2.50;2.40;;;16.80;46.70;;;;;;4937388;29;20236;-68
2022/04/29 11:15:42;;;;;;;3.53;3.33;;;16.90;45.20;;;;;;4936653;29;20238;-69
2022/04/29 11:18:19;;;;;;;2.53;2.40;;;16.80;45.40;;;;;;4936225;29;20275;-69
2022/04/29 11:20:49;;;;;;;2.45;2.25;;;16.90;46.80;;;;;;4936425;29;20275;-68
2022/04/29 11:26:11;;;;;;;3.10;2.03;;;17.00;45.30;;;;;;4936839;29;20689;-69
2022/04/29 11:28:38;;;;;;;1.65;1.55;;;17.00;44.00;;;;;;4936013;29;20593;-69
2022/04/29 11:31:06;;;;;;;2.13;2.03;;;17.20;44.80;;;;;;4936301;29;20291;-69
2022/04/29 11:33:34;;;;;;;1.63;1.60;;;17.30;44.80;;;;;;4936295;29;20295;-69
2022/04/29 11:36:05;;;;;;;2.08;1.98;;;17.50;45.10;;;;;;4936314;29;20220;-69
2022/04/29 11:38:33;;;;;;;3.33;2.50;;;17.70;44.70;;;;;;4936063;29;20229;-69
2022/04/29 11:41:03;;;;;;;2.40;2.20;;;17.60;45.10;;;;;;4936330;29;20208;-69
2022/04/29 11:43:30;;;;;;;2.53;2.42;;;17.40;44.00;;;;;;4936265;29;20291;-69
2022/04/29 11:46:05;;;;;;;2.00;1.90;;;17.40;44.50;;;;;;4936196;29;20259;-69
2022/04/29 11:48:32;;;;;;;2.40;2.30;;;17.50;45.10;;;;;;4936285;29;20269;-69
2022/04/29 11:50:59;;;;;;;2.38;2.17;;;17.60;44.70;;;;;;4936350;29;20295;-69
2022/04/29 11:53:27;;;;;;;1.42;1.42;;;17.70;44.20;;;;;;4936271;29;20228;-69
2022/04/29 11:55:54;;;;;;;2.28;2.00;;;17.80;44.50;;;;;;4936048;29;20640;-69
2022/04/29 11:58:21;;;;;;;1.88;1.77;;;17.90;44.40;;;;;;4936047;29;20226;-68
2022/04/29 12:00:54;;;;;;;2.33;2.22;;;18.00;43.90;;;;;;4936050;29;20295;-68
2022/04/29 12:03:22;;;;;;;3.53;2.17;;;18.10;43.20;;;;;;4938507;29;20191;-68
2022/04/29 12:05:51;;;;;;;2.08;1.98;;;18.00;43.50;;;;;;4938822;29;20659;-67
2022/04/29 12:08:18;;;;;;;1.83;1.73;;;18.00;44.00;;;;;;4938979;29;20243;-68
2022/04/29 12:10:49;;;;;;;2.47;2.38;;;18.20;43.70;;;;;;4940563;29;20238;-68
2022/04/29 12:13:19;;;;;;;1.50;1.50;;;17.90;42.30;;;;;;4940022;29;20247;-67
2022/04/29 12:15:46;;;;;;;1.65;1.55;;;18.10;43.90;;;;;;4939260;29;20216;-67
2022/04/29 12:18:16;;;;;;;2.88;2.30;;;18.30;43.70;;;;;;4940242;29;20723;-67
2022/04/29 12:20:44;;;;;;;1.92;1.92;;;18.40;43.20;;;;;;4939353;29;20200;-66
2022/04/29 12:23:13;;;;;;;1.48;1.38;;;18.50;42.70;;;;;;4939984;29;20208;-66
2022/04/29 12:25:45;;;;;;;3.38;2.63;;;18.60;43.30;;;;;;4939467;29;20200;-66
2022/04/29 12:28:20;;;;;;;2.35;2.25;;;18.70;42.60;;;;;;4939727;29;20255;-65
2022/04/29 12:36:49;;;;;;;3.15;3.00;;;18.60;42.50;;;;;;4939293;29;20188;-65
2022/04/29 12:39:21;;;;;;;2.30;2.20;;;18.30;42.50;;;;;;4938386;29;20239;-65
2022/04/29 12:42:06;;;;;;;4.95;3.33;;;18.20;43.30;;;;;;4939219;29;20228;-65
2022/04/29 12:47:32;;;;;;;2.55;2.33;;;18.30;42.70;;;;;;4937649;29;20316;-65
2022/04/29 12:50:23;;;;;;;3.70;2.40;;;18.40;42.30;;;;;;4939629;29;20195;-65
2022/04/29 12:53:03;;;;;;;2.33;2.15;;;18.40;42.60;;;;;;4939515;29;20189;-65
2022/04/29 12:55:32;;;;;;;2.70;1.90;;;18.40;42.20;;;;;;4941310;29;20208;-65
2022/04/29 12:58:09;;;;;;;1.33;1.23;;;18.40;42.80;;;;;;4941117;29;20279;-65
2022/04/29 13:00:41;;;;;;;2.08;1.98;;;18.60;42.40;;;;;;4940991;29;20243;-65
2022/04/29 13:03:10;;;;;;;1.88;1.85;;;18.60;42.00;;;;;;4944437;29;20196;-65
2022/04/29 13:05:38;;;;;;;2.50;2.30;;;18.60;41.40;;;;;;4944308;29;20211;-65
2022/04/29 13:08:07;;;;;;;2.78;2.67;;;18.40;41.80;;;;;;4941612;29;20234;-65
2022/04/29 13:10:43;;;;;;;2.13;1.95;;;18.40;41.50;;;;;;4943854;29;20203;-65
2022/04/29 13:13:11;;;;;;;2.70;2.50;;;18.50;42.20;;;;;;4943073;29;20192;-66
2022/04/29 13:15:41;;;;;;;2.75;2.65;;;18.50;41.30;;;;;;4942455;29;20280;-64
2022/04/29 13:18:09;;;;;;;2.38;2.28;;;18.40;41.20;;;;;;4943495;29;20263;-65
2022/04/29 13:20:37;;;;;;;1.55;1.55;;;18.30;42.40;;;;;;4943529;29;20208;-66
2022/04/29 13:23:04;;;;;;;3.65;2.88;;;18.40;41.90;;;;;;4943312;29;20192;-66
2022/04/29 13:25:35;;;;;;;2.55;2.40;;;18.30;41.40;;;;;;4943581;29;20204;-67
2022/04/29 13:28:03;;;;;;;2.70;2.50;;;18.10;42.00;;;;;;4943340;29;20259;-67
2022/04/29 13:30:31;;;;;;;4.43;2.30;;;18.00;42.40;;;;;;4944446;29;20219;-67
2022/04/29 13:33:00;;;;;;;2.47;2.28;;;18.20;42.10;;;;;;4943813;29;20204;-67
2022/04/29 13:35:27;;;;;;;3.92;2.47;;;18.40;40.90;;;;;;4943293;29;20236;-66
2022/04/29 13:37:55;;;;;;;1.90;1.80;;;18.40;40.40;;;;;;4942910;29;20263;-66
2022/04/29 13:40:23;;;;;;;1.52;1.52;;;18.60;41.10;;;;;;4942855;29;20211;-67
2022/04/29 13:42:52;;;;;;;3.25;2.72;;;18.70;40.70;;;;;;4943009;29;20219;-66
2022/04/29 13:45:20;;;;;;;2.58;2.45;;;18.70;40.70;;;;;;4943069;29;20224;-67
2022/04/29 13:47:48;;;;;;;1.70;1.70;;;18.50;42.00;;;;;;4942914;29;20231;-67
2022/04/29 13:50:17;;;;;;;1.45;1.40;;;18.50;39.90;;;;;;4943492;29;20721;-67
2022/04/29 13:55:30;;;;;;;2.20;2.10;;;18.60;38.80;;;;;;4942023;29;20231;-67
2022/04/29 13:57:58;;;;;;;1.85;1.65;;;18.30;39.40;;;;;;4942381;29;20307;-67
2022/04/29 14:00:25;;;;;;;2.10;2.00;;;18.20;39.20;;;;;;4943260;29;20563;-67
2022/04/29 14:02:53;;;;;;;1.85;1.60;;;18.10;39.80;;;;;;4943896;29;20204;-67
2022/04/29 14:05:24;;;;;;;1.13;0.90;;;18.20;39.80;;;;;;4942794;29;20615;-67
2022/04/29 14:07:54;;;;;;;2.63;2.10;;;18.30;39.70;;;;;;4941650;29;20280;-67
2022/04/29 14:10:22;;;;;;;1.40;1.30;;;18.10;38.90;;;;;;4942100;29;20256;-67
2022/04/29 14:12:49;;;;;;;1.60;1.27;;;18.10;39.20;;;;;;4941511;29;20208;-67
2022/04/29 14:15:16;;;;;;;2.05;1.40;;;18.10;39.50;;;;;;4943304;29;20228;-67
2022/04/29 14:17:44;;;;;;;1.60;1.50;;;18.30;39.40;;;;;;4942341;29;20274;-67
2022/04/29 14:20:12;;;;;;;1.55;1.55;;;18.30;38.20;;;;;;4943097;29;20205;-67
2022/04/29 14:22:42;;;;;;;2.90;2.72;;;18.20;38.40;;;;;;4942933;29;20200;-67
2022/04/29 14:25:13;;;;;;;2.75;1.80;;;18.20;37.60;;;;;;4937523;29;20287;-66
2022/04/29 14:27:46;;;;;;;2.83;2.60;;;18.10;38.20;;;;;;4937174;29;20747;-66
2022/04/29 14:30:15;;;;;;;6.75;5.50;;;18.30;38.70;;;;;;4936200;29;20208;-67
2022/04/29 14:32:43;;;;;;;2.90;2.70;;;18.30;38.40;;;;;;4937320;29;20212;-67
2022/04/29 14:35:14;;;;;;;3.25;2.60;;;18.20;38.10;;;;;;4937041;29;20316;-67
2022/04/29 14:37:42;;;;;;;2.40;2.22;;;18.20;38.10;;;;;;4936866;29;20761;-66
2022/04/29 14:40:11;;;;;;;2.15;2.05;;;18.30;38.10;;;;;;4936904;29;20291;-66
2022/04/29 14:42:38;;;;;;;2.25;2.08;;;18.30;37.70;;;;;;4937148;29;20208;-68
2022/04/29 14:45:06;;;;;;;1.70;1.60;;;18.20;37.80;;;;;;4937221;29;20291;-67
2022/04/29 14:47:33;;;;;;;1.30;1.30;;;18.20;37.50;;;;;;4936931;29;20311;-67
2022/04/29 14:50:01;;;;;;;1.95;1.65;;;18.20;37.90;;;;;;4937217;29;20295;-67
2022/04/29 14:52:29;;;;;;;1.55;1.20;;;18.30;37.60;;;;;;4936827;29;20192;-67
2022/04/29 14:54:57;;;;;;;1.42;1.42;;;18.30;38.20;;;;;;4936488;29;20632;-66
2022/04/29 14:57:25;;;;;;;1.05;0.98;;;18.40;38.40;;;;;;4936753;29;20591;-66
2022/04/29 14:59:52;;;;;;;4.78;2.20;;;18.50;38.40;;;;;;4936805;29;20275;-66
2022/04/29 15:02:20;;;;;;;2.40;2.30;;;18.30;38.70;;;;;;4936815;29;20204;-66
2022/04/29 15:04:53;;;;;;;2.05;1.92;;;18.00;38.80;;;;;;4936767;29;20580;-65
2022/04/29 15:07:21;;;;;;;2.67;2.10;;;17.90;38.90;;;;;;4936195;29;20290;-66
2022/04/29 15:15:38;;;;;;;1.40;1.38;;;18.10;40.30;;;;;;4936831;29;20314;-69
2022/04/29 15:18:07;;;;;;;2.75;2.55;;;18.10;40.80;;;;;;4936596;29;20228;-66
2022/04/29 15:20:34;;;;;;;2.42;2.33;;;18.20;40.90;;;;;;4936579;29;20208;-66
2022/04/29 15:23:01;;;;;;;2.92;2.60;;;18.10;41.20;;;;;;4936103;29;20295;-67
2022/04/29 15:25:28;;;;;;;2.33;2.05;;;18.10;41.90;;;;;;4936198;29;20735;-66
2022/04/29 15:27:57;;;;;;;2.40;2.30;;;18.20;42.30;;;;;;4936432;29;20315;-65
2022/04/29 15:30:35;;;;;;;3.65;3.35;;;18.30;41.80;;;;;;4936417;29;20252;-65
2022/04/29 15:33:04;;;;;;;3.10;2.80;;;18.20;42.00;;;;;;4936447;29;20207;-66
2022/04/29 15:35:30;;;;;;;2.72;2.63;;;18.00;42.10;;;;;;4936244;29;20310;-67
2022/04/29 15:37:57;;;;;;;3.35;3.05;;;17.80;42.10;;;;;;4936249;29;20319;-66
2022/04/29 15:40:24;;;;;;;4.00;3.70;;;17.80;42.50;;;;;;4936244;29;20279;-66
2022/04/29 15:42:51;;;;;;;2.45;2.30;;;17.70;42.90;;;;;;4936260;29;20228;-66
2022/04/29 15:45:19;;;;;;;3.30;2.65;;;17.80;43.00;;;;;;4936164;29;20626;-65
2022/04/29 15:47:46;;;;;;;2.88;2.78;;;17.80;43.30;;;;;;4935753;29;20802;-66
2022/04/29 15:50:13;;;;;;;2.53;2.33;;;17.90;43.10;;;;;;4935822;29;20236;-65
2022/04/29 15:52:40;;;;;;;3.05;2.85;;;17.90;43.30;;;;;;4935892;29;20215;-65
2022/04/29 15:55:08;;;;;;;2.85;2.72;;;17.90;42.90;;;;;;4935571;29;20301;-66
2022/04/29 15:57:35;;;;;;;3.40;3.20;;;17.80;43.10;;;;;;4935908;29;20228;-66
2022/04/29 16:00:03;;;;;;;2.72;2.63;;;17.80;43.30;;;;;;4935991;29;20311;-66
2022/04/29 16:02:31;;;;;;;2.45;2.35;;;17.70;42.90;;;;;;4935962;29;20227;-66
2022/04/29 16:04:58;;;;;;;2.03;1.92;;;17.70;42.90;;;;;;4936115;29;20279;-66
2022/04/29 16:07:25;;;;;;;1.73;1.67;;;17.70;42.10;;;;;;4937057;29;20331;-66
2022/04/29 16:09:51;;;;;;;1.40;1.38;;;17.70;42.40;;;;;;4936846;29;20379;-66
2022/04/29 16:12:18;;;;;;;1.38;1.35;;;17.80;42.60;;;;;;4935584;29;20743;-65
2022/04/29 16:14:45;;;;;;;1.52;1.38;;;17.80;42.80;;;;;;4935406;29;20275;-66
2022/04/29 16:17:12;;;;;;;1.73;1.63;;;17.80;43.30;;;;;;4935592;29;20326;-67
2022/04/29 16:27:51;;;;;;;2.78;2.67;;;17.50;41.20;;;;;;4935805;29;20219;-63
2022/04/29 16:30:18;;;;;;;2.63;2.08;;;17.40;41.00;;;;;;4936167;29;20219;-63
2022/04/29 16:32:45;;;;;;;2.17;2.08;;;17.30;41.10;;;;;;4936108;29;20290;-63
2022/04/29 16:35:13;;;;;;;2.15;2.05;;;17.30;41.00;;;;;;4937880;29;20633;-63
2022/04/29 16:37:40;;;;;;;2.30;1.90;;;17.20;40.90;;;;;;4939634;29;20311;-67
2022/04/29 16:40:08;;;;;;;2.80;2.60;;;17.20;41.00;;;;;;4939865;29;20275;-69
2022/04/29 16:42:35;;;;;;;4.20;2.70;;;17.10;41.00;;;;;;4939794;29;20200;-70
2022/04/29 16:45:03;;;;;;;2.58;2.47;;;17.00;42.10;;;;;;4939917;29;20200;-70
2022/04/29 16:47:30;;;;;;;2.15;2.05;;;16.90;42.10;;;;;;4939743;29;20232;-70
2022/04/29 16:49:57;;;;;;;3.30;3.05;;;16.90;42.80;;;;;;4939589;29;20779;-69
2022/04/29 16:52:25;;;;;;;3.15;2.95;;;16.80;43.60;;;;;;4938891;29;20299;-70
2022/04/29 16:54:52;;;;;;;2.35;2.25;;;16.60;44.00;;;;;;4939313;29;20294;-70
2022/04/29 17:00:04;;;;;;;2.72;2.63;;;16.50;44.90;;;;;;4939119;29;20188;-66
2022/04/29 17:02:31;;;;;;;2.70;2.58;;;16.50;44.40;;;;;;4939382;29;20284;-67
2022/04/29 17:04:58;;;;;;;2.90;2.70;;;16.40;44.70;;;;;;4939192;29;20277;-67
2022/04/29 17:07:26;;;;;;;3.45;3.25;;;16.30;45.00;;;;;;4939171;29;20311;-67
2022/04/29 17:09:53;;;;;;;3.35;3.05;;;16.20;45.00;;;;;;4938894;29;20315;-67
2022/04/29 17:12:20;;;;;;;5.30;3.40;;;16.20;45.40;;;;;;4938824;29;20758;-67
2022/04/29 17:14:47;;;;;;;2.75;2.53;;;16.10;45.70;;;;;;4939331;29;20664;-65
2022/04/29 17:17:16;;;;;;;2.22;1.90;;;16.10;47.40;;;;;;4938371;29;20629;-66
2022/04/29 17:19:43;;;;;;;1.20;1.20;;;16.10;48.00;;;;;;4938475;29;20676;-65
2022/04/29 17:22:10;;;;;;;1.30;1.30;;;16.10;48.70;;;;;;4938771;29;20296;-66
2022/04/29 17:24:39;;;;;;;1.42;1.33;;;16.10;49.30;;;;;;4938721;29;20232;-65
2022/04/29 17:27:06;;;;;;;1.10;1.10;;;16.00;50.40;;;;;;4938373;29;20720;-65
2022/04/29 17:29:33;;;;;;;1.30;1.10;;;16.00;51.20;;;;;;4938569;29;20296;-66
2022/04/29 17:32:00;;;;;;;0.90;0.90;;;16.00;51.60;;;;;;4938243;29;20296;-66
2022/04/29 17:34:27;;;;;;;1.20;1.20;;;15.90;51.90;;;;;;4938774;29;20296;-65
2022/04/29 17:36:54;;;;;;;1.30;1.30;;;15.90;52.90;;;;;;4938467;29;20327;-65
2022/04/29 17:42:22;;;;;;;1.05;1.05;;;15.70;54.60;;;;;;4938925;29;20631;-65
2022/04/29 17:44:49;;;;;;;0.70;0.70;;;15.70;55.90;;;;;;4938365;29;20713;-66
2022/04/29 17:47:16;;;;;;;0.90;0.90;;;15.60;56.30;;;;;;4938090;29;20275;-66
2022/04/29 17:50:15;;;;;;;0.90;0.90;;;15.50;58.00;;;;;;4938030;29;20756;-65
2022/04/29 17:52:31;;;;;;;0.88;0.88;;;15.40;57.70;;;;;;4938098;29;20213;-67
2022/04/29 17:54:58;;;;;;;0.60;0.60;;;15.30;58.90;;;;;;4938331;29;20291;-67
2022/04/29 17:57:26;;;;;;;0.82;0.70;;;15.30;60.70;;;;;;4938224;29;20315;-66
2022/04/29 17:59:53;;;;;;;0.65;0.65;;;15.20;63.40;;;;;;4937906;29;20295;-66